sensor_id;sensor_type;location;lat;lon;timestamp;P1;durP1;ratioP1;P2;durP2;ratioP2
9536;SDS011;4807;48.024;11.726;2023-09-19T00:01:35;2.67;;;0.50;;
9536;SDS011;4807;48.024;11.726;2023-09-19T00:04:45;0.40;;;0.37;;
9536;SDS011;4807;48.024;11.726;2023-09-19T00:07:55;0.30;;;0.27;;
9536;SDS011;4807;48.024;11.726;2023-09-19T00:11:07;1.70;;;0.50;;
9536;SDS011;4807;48.024;11.726;2023-09-19T00:14:19;0.47;;;0.40;;
9536;SDS011;4807;48.024;11.726;2023-09-19T00:17:31;0.53;;;0.50;;
9536;SDS011;4807;48.024;11.726;2023-09-19T00:20:41;1.07;;;0.50;;
9536;SDS011;4807;48.024;11.726;2023-09-19T00:23:54;0.47;;;0.40;;
9536;SDS011;4807;48.024;11.726;2023-09-19T00:27:04;0.53;;;0.30;;
9536;SDS011;4807;48.024;11.726;2023-09-19T00:30:16;2.13;;;1.23;;
9536;SDS011;4807;48.024;11.726;2023-09-19T00:33:28;0.67;;;0.60;;
9536;SDS011;4807;48.024;11.726;2023-09-19T00:36:37;1.90;;;0.60;;
9536;SDS011;4807;48.024;11.726;2023-09-19T00:39:46;1.10;;;0.63;;
9536;SDS011;4807;48.024;11.726;2023-09-19T00:42:57;1.43;;;0.40;;
9536;SDS011;4807;48.024;11.726;2023-09-19T00:46:09;0.67;;;0.40;;
9536;SDS011;4807;48.024;11.726;2023-09-19T00:49:18;0.40;;;0.40;;
9536;SDS011;4807;48.024;11.726;2023-09-19T00:52:29;2.10;;;0.40;;
9536;SDS011;4807;48.024;11.726;2023-09-19T00:55:38;0.63;;;0.50;;
9536;SDS011;4807;48.024;11.726;2023-09-19T00:58:49;0.80;;;0.57;;
9536;SDS011;4807;48.024;11.726;2023-09-19T01:01:58;1.30;;;0.50;;
9536;SDS011;4807;48.024;11.726;2023-09-19T01:05:11;0.40;;;0.40;;
9536;SDS011;4807;48.024;11.726;2023-09-19T01:08:21;0.80;;;0.43;;
9536;SDS011;4807;48.024;11.726;2023-09-19T01:11:31;0.50;;;0.50;;
9536;SDS011;4807;48.024;11.726;2023-09-19T01:14:49;1.10;;;0.53;;
9536;SDS011;4807;48.024;11.726;2023-09-19T01:18:08;1.47;;;0.43;;
9536;SDS011;4807;48.024;11.726;2023-09-19T01:21:26;1.90;;;0.40;;
9536;SDS011;4807;48.024;11.726;2023-09-19T01:24:47;1.40;;;0.53;;
9536;SDS011;4807;48.024;11.726;2023-09-19T01:28:31;1.43;;;0.50;;
9536;SDS011;4807;48.024;11.726;2023-09-19T01:31:45;2.20;;;0.60;;
9536;SDS011;4807;48.024;11.726;2023-09-19T01:34:57;0.50;;;0.40;;
9536;SDS011;4807;48.024;11.726;2023-09-19T01:38:10;1.20;;;0.43;;
9536;SDS011;4807;48.024;11.726;2023-09-19T01:41:21;0.90;;;0.50;;
9536;SDS011;4807;48.024;11.726;2023-09-19T01:44:40;0.70;;;0.40;;
9536;SDS011;4807;48.024;11.726;2023-09-19T01:48:01;0.50;;;0.40;;
9536;SDS011;4807;48.024;11.726;2023-09-19T01:51:26;0.70;;;0.50;;
9536;SDS011;4807;48.024;11.726;2023-09-19T01:54:44;0.83;;;0.50;;
9536;SDS011;4807;48.024;11.726;2023-09-19T01:58:00;3.60;;;0.40;;
9536;SDS011;4807;48.024;11.726;2023-09-19T02:01:15;2.77;;;0.50;;
9536;SDS011;4807;48.024;11.726;2023-09-19T02:04:29;2.13;;;0.50;;
9536;SDS011;4807;48.024;11.726;2023-09-19T02:07:39;0.43;;;0.43;;
9536;SDS011;4807;48.024;11.726;2023-09-19T02:10:48;2.20;;;0.60;;
9536;SDS011;4807;48.024;11.726;2023-09-19T02:13:57;0.60;;;0.23;;
9536;SDS011;4807;48.024;11.726;2023-09-19T02:17:05;1.07;;;0.90;;
9536;SDS011;4807;48.024;11.726;2023-09-19T02:20:18;2.10;;;0.40;;
9536;SDS011;4807;48.024;11.726;2023-09-19T02:23:28;0.50;;;0.50;;
9536;SDS011;4807;48.024;11.726;2023-09-19T02:26:37;2.17;;;0.50;;
9536;SDS011;4807;48.024;11.726;2023-09-19T02:29:46;1.60;;;0.40;;
9536;SDS011;4807;48.024;11.726;2023-09-19T02:32:56;0.73;;;0.60;;
9536;SDS011;4807;48.024;11.726;2023-09-19T02:36:09;0.73;;;0.50;;
9536;SDS011;4807;48.024;11.726;2023-09-19T02:39:17;1.47;;;0.63;;
9536;SDS011;4807;48.024;11.726;2023-09-19T02:42:27;0.83;;;0.77;;
9536;SDS011;4807;48.024;11.726;2023-09-19T02:45:36;1.83;;;0.50;;
9536;SDS011;4807;48.024;11.726;2023-09-19T02:48:45;0.43;;;0.40;;
9536;SDS011;4807;48.024;11.726;2023-09-19T02:51:55;2.30;;;0.57;;
9536;SDS011;4807;48.024;11.726;2023-09-19T02:55:05;1.30;;;0.83;;
9536;SDS011;4807;48.024;11.726;2023-09-19T02:58:15;0.70;;;0.60;;
9536;SDS011;4807;48.024;11.726;2023-09-19T03:01:25;0.93;;;0.43;;
9536;SDS011;4807;48.024;11.726;2023-09-19T03:04:35;0.70;;;0.60;;
9536;SDS011;4807;48.024;11.726;2023-09-19T03:07:46;2.97;;;0.70;;
9536;SDS011;4807;48.024;11.726;2023-09-19T03:10:58;0.93;;;0.87;;
9536;SDS011;4807;48.024;11.726;2023-09-19T03:14:07;1.53;;;0.90;;
9536;SDS011;4807;48.024;11.726;2023-09-19T03:17:17;0.70;;;0.70;;
9536;SDS011;4807;48.024;11.726;2023-09-19T03:20:27;2.17;;;0.60;;
9536;SDS011;4807;48.024;11.726;2023-09-19T03:23:38;2.10;;;0.70;;
9536;SDS011;4807;48.024;11.726;2023-09-19T03:26:47;2.00;;;0.70;;
9536;SDS011;4807;48.024;11.726;2023-09-19T03:29:56;0.80;;;0.50;;
9536;SDS011;4807;48.024;11.726;2023-09-19T03:33:05;0.53;;;0.50;;
9536;SDS011;4807;48.024;11.726;2023-09-19T03:36:15;0.67;;;0.60;;
9536;SDS011;4807;48.024;11.726;2023-09-19T03:39:26;2.10;;;0.70;;
9536;SDS011;4807;48.024;11.726;2023-09-19T03:42:35;1.13;;;0.70;;
9536;SDS011;4807;48.024;11.726;2023-09-19T03:45:48;0.60;;;0.43;;
9536;SDS011;4807;48.024;11.726;2023-09-19T03:48:58;0.87;;;0.60;;
9536;SDS011;4807;48.024;11.726;2023-09-19T03:52:07;1.10;;;0.60;;
9536;SDS011;4807;48.024;11.726;2023-09-19T03:55:17;1.90;;;0.50;;
9536;SDS011;4807;48.024;11.726;2023-09-19T03:58:26;1.03;;;0.70;;
9536;SDS011;4807;48.024;11.726;2023-09-19T04:01:34;2.57;;;0.60;;
9536;SDS011;4807;48.024;11.726;2023-09-19T04:04:43;0.50;;;0.47;;
9536;SDS011;4807;48.024;11.726;2023-09-19T04:07:52;0.50;;;0.50;;
9536;SDS011;4807;48.024;11.726;2023-09-19T04:11:02;2.50;;;0.50;;
9536;SDS011;4807;48.024;11.726;2023-09-19T04:14:11;1.13;;;0.60;;
9536;SDS011;4807;48.024;11.726;2023-09-19T04:17:20;0.70;;;0.60;;
9536;SDS011;4807;48.024;11.726;2023-09-19T04:20:30;0.57;;;0.57;;
9536;SDS011;4807;48.024;11.726;2023-09-19T04:23:38;1.23;;;0.57;;
9536;SDS011;4807;48.024;11.726;2023-09-19T04:26:49;0.50;;;0.50;;
9536;SDS011;4807;48.024;11.726;2023-09-19T04:29:58;1.23;;;0.57;;
9536;SDS011;4807;48.024;11.726;2023-09-19T04:33:11;2.87;;;0.80;;
9536;SDS011;4807;48.024;11.726;2023-09-19T04:36:21;2.07;;;0.73;;
9536;SDS011;4807;48.024;11.726;2023-09-19T04:39:41;0.67;;;0.60;;
9536;SDS011;4807;48.024;11.726;2023-09-19T04:42:54;0.60;;;0.60;;
9536;SDS011;4807;48.024;11.726;2023-09-19T04:46:03;0.80;;;0.57;;
9536;SDS011;4807;48.024;11.726;2023-09-19T04:49:13;0.60;;;0.50;;
9536;SDS011;4807;48.024;11.726;2023-09-19T04:52:22;1.20;;;0.50;;
9536;SDS011;4807;48.024;11.726;2023-09-19T04:55:30;0.63;;;0.40;;
9536;SDS011;4807;48.024;11.726;2023-09-19T04:58:41;0.97;;;0.53;;
9536;SDS011;4807;48.024;11.726;2023-09-19T05:01:49;0.67;;;0.50;;
9536;SDS011;4807;48.024;11.726;2023-09-19T05:04:58;3.97;;;0.50;;
9536;SDS011;4807;48.024;11.726;2023-09-19T05:08:07;1.23;;;0.37;;
9536;SDS011;4807;48.024;11.726;2023-09-19T05:11:16;0.57;;;0.57;;
9536;SDS011;4807;48.024;11.726;2023-09-19T05:14:26;0.43;;;0.40;;
9536;SDS011;4807;48.024;11.726;2023-09-19T05:17:35;1.00;;;0.50;;
9536;SDS011;4807;48.024;11.726;2023-09-19T05:20:45;1.43;;;0.60;;
9536;SDS011;4807;48.024;11.726;2023-09-19T05:23:56;0.40;;;0.40;;
9536;SDS011;4807;48.024;11.726;2023-09-19T05:27:05;0.73;;;0.40;;
9536;SDS011;4807;48.024;11.726;2023-09-19T05:30:15;0.63;;;0.40;;
9536;SDS011;4807;48.024;11.726;2023-09-19T05:33:24;1.07;;;0.60;;
9536;SDS011;4807;48.024;11.726;2023-09-19T05:36:33;0.77;;;0.40;;
9536;SDS011;4807;48.024;11.726;2023-09-19T05:39:42;0.67;;;0.47;;
9536;SDS011;4807;48.024;11.726;2023-09-19T05:42:51;1.10;;;0.40;;
9536;SDS011;4807;48.024;11.726;2023-09-19T05:46:01;0.30;;;0.30;;
9536;SDS011;4807;48.024;11.726;2023-09-19T05:49:10;0.30;;;0.30;;
9536;SDS011;4807;48.024;11.726;2023-09-19T05:52:18;0.40;;;0.40;;
9536;SDS011;4807;48.024;11.726;2023-09-19T05:55:28;1.60;;;0.50;;
9536;SDS011;4807;48.024;11.726;2023-09-19T05:58:37;0.40;;;0.30;;
9536;SDS011;4807;48.024;11.726;2023-09-19T06:01:48;0.60;;;0.37;;
9536;SDS011;4807;48.024;11.726;2023-09-19T06:04:58;1.63;;;0.53;;
9536;SDS011;4807;48.024;11.726;2023-09-19T06:08:07;4.50;;;0.50;;
9536;SDS011;4807;48.024;11.726;2023-09-19T06:11:16;1.80;;;0.60;;
9536;SDS011;4807;48.024;11.726;2023-09-19T06:14:26;0.77;;;0.40;;
9536;SDS011;4807;48.024;11.726;2023-09-19T06:17:37;0.40;;;0.40;;
9536;SDS011;4807;48.024;11.726;2023-09-19T06:20:46;1.67;;;0.30;;
9536;SDS011;4807;48.024;11.726;2023-09-19T06:23:55;1.53;;;0.40;;
9536;SDS011;4807;48.024;11.726;2023-09-19T06:27:04;0.50;;;0.47;;
9536;SDS011;4807;48.024;11.726;2023-09-19T06:30:14;0.50;;;0.50;;
9536;SDS011;4807;48.024;11.726;2023-09-19T06:33:25;0.53;;;0.50;;
9536;SDS011;4807;48.024;11.726;2023-09-19T06:36:33;0.20;;;0.20;;
9536;SDS011;4807;48.024;11.726;2023-09-19T06:39:42;0.93;;;0.33;;
9536;SDS011;4807;48.024;11.726;2023-09-19T06:42:51;0.40;;;0.40;;
9536;SDS011;4807;48.024;11.726;2023-09-19T06:46:02;1.10;;;0.50;;
9536;SDS011;4807;48.024;11.726;2023-09-19T06:49:14;0.87;;;0.30;;
9536;SDS011;4807;48.024;11.726;2023-09-19T06:52:23;0.53;;;0.40;;
9536;SDS011;4807;48.024;11.726;2023-09-19T06:55:32;0.60;;;0.40;;
9536;SDS011;4807;48.024;11.726;2023-09-19T06:58:42;0.40;;;0.27;;
9536;SDS011;4807;48.024;11.726;2023-09-19T07:01:50;1.17;;;0.30;;
9536;SDS011;4807;48.024;11.726;2023-09-19T07:05:01;2.80;;;0.40;;
9536;SDS011;4807;48.024;11.726;2023-09-19T07:08:10;1.47;;;0.30;;
9536;SDS011;4807;48.024;11.726;2023-09-19T07:11:19;0.73;;;0.20;;
9536;SDS011;4807;48.024;11.726;2023-09-19T07:14:29;1.63;;;0.40;;
9536;SDS011;4807;48.024;11.726;2023-09-19T07:17:38;2.87;;;0.37;;
9536;SDS011;4807;48.024;11.726;2023-09-19T07:20:56;0.93;;;0.50;;
9536;SDS011;4807;48.024;11.726;2023-09-19T07:24:07;1.60;;;0.37;;
9536;SDS011;4807;48.024;11.726;2023-09-19T07:27:16;0.80;;;0.40;;
9536;SDS011;4807;48.024;11.726;2023-09-19T07:30:25;1.30;;;0.50;;
9536;SDS011;4807;48.024;11.726;2023-09-19T07:33:34;2.43;;;0.40;;
9536;SDS011;4807;48.024;11.726;2023-09-19T07:36:44;3.20;;;0.30;;
9536;SDS011;4807;48.024;11.726;2023-09-19T07:39:53;0.50;;;0.30;;
9536;SDS011;4807;48.024;11.726;2023-09-19T07:43:02;1.23;;;0.33;;
9536;SDS011;4807;48.024;11.726;2023-09-19T07:46:11;0.50;;;0.40;;
9536;SDS011;4807;48.024;11.726;2023-09-19T07:49:19;0.30;;;0.30;;
9536;SDS011;4807;48.024;11.726;2023-09-19T07:52:30;0.40;;;0.30;;
9536;SDS011;4807;48.024;11.726;2023-09-19T07:55:40;0.43;;;0.40;;
9536;SDS011;4807;48.024;11.726;2023-09-19T07:58:49;0.43;;;0.30;;
9536;SDS011;4807;48.024;11.726;2023-09-19T08:01:58;0.30;;;0.30;;
9536;SDS011;4807;48.024;11.726;2023-09-19T08:05:07;2.10;;;0.43;;
9536;SDS011;4807;48.024;11.726;2023-09-19T08:08:19;1.20;;;0.33;;
9536;SDS011;4807;48.024;11.726;2023-09-19T08:11:28;3.10;;;0.40;;
9536;SDS011;4807;48.024;11.726;2023-09-19T08:14:37;0.40;;;0.40;;
9536;SDS011;4807;48.024;11.726;2023-09-19T08:17:48;0.30;;;0.30;;
9536;SDS011;4807;48.024;11.726;2023-09-19T08:20:57;0.40;;;0.40;;
9536;SDS011;4807;48.024;11.726;2023-09-19T08:24:08;0.40;;;0.30;;
9536;SDS011;4807;48.024;11.726;2023-09-19T08:27:17;1.30;;;0.30;;
9536;SDS011;4807;48.024;11.726;2023-09-19T08:30:26;0.40;;;0.40;;
9536;SDS011;4807;48.024;11.726;2023-09-19T08:33:36;0.43;;;0.40;;
9536;SDS011;4807;48.024;11.726;2023-09-19T08:36:48;1.67;;;0.27;;
9536;SDS011;4807;48.024;11.726;2023-09-19T08:40:00;1.13;;;0.40;;
9536;SDS011;4807;48.024;11.726;2023-09-19T08:43:10;0.93;;;0.30;;
9536;SDS011;4807;48.024;11.726;2023-09-19T08:46:20;0.57;;;0.30;;
9536;SDS011;4807;48.024;11.726;2023-09-19T08:49:36;0.77;;;0.40;;
9536;SDS011;4807;48.024;11.726;2023-09-19T08:52:59;0.30;;;0.30;;
9536;SDS011;4807;48.024;11.726;2023-09-19T08:56:11;0.67;;;0.40;;
9536;SDS011;4807;48.024;11.726;2023-09-19T08:59:22;0.93;;;0.40;;
9536;SDS011;4807;48.024;11.726;2023-09-19T09:02:33;0.50;;;0.30;;
9536;SDS011;4807;48.024;11.726;2023-09-19T09:05:42;0.70;;;0.40;;
9536;SDS011;4807;48.024;11.726;2023-09-19T09:08:52;0.87;;;0.50;;
9536;SDS011;4807;48.024;11.726;2023-09-19T09:12:04;1.43;;;0.43;;
9536;SDS011;4807;48.024;11.726;2023-09-19T09:15:13;0.30;;;0.30;;
9536;SDS011;4807;48.024;11.726;2023-09-19T09:18:23;0.30;;;0.30;;
9536;SDS011;4807;48.024;11.726;2023-09-19T09:21:32;0.30;;;0.30;;
9536;SDS011;4807;48.024;11.726;2023-09-19T09:24:51;0.30;;;0.30;;
9536;SDS011;4807;48.024;11.726;2023-09-19T09:28:03;0.40;;;0.30;;
9536;SDS011;4807;48.024;11.726;2023-09-19T09:31:21;3.50;;;0.40;;
9536;SDS011;4807;48.024;11.726;2023-09-19T09:34:32;1.27;;;0.20;;
9536;SDS011;4807;48.024;11.726;2023-09-19T09:37:42;0.73;;;0.40;;
9536;SDS011;4807;48.024;11.726;2023-09-19T09:40:54;0.30;;;0.30;;
9536;SDS011;4807;48.024;11.726;2023-09-19T09:44:16;0.40;;;0.30;;
9536;SDS011;4807;48.024;11.726;2023-09-19T09:47:40;0.30;;;0.27;;
9536;SDS011;4807;48.024;11.726;2023-09-19T09:50:56;0.93;;;0.30;;
9536;SDS011;4807;48.024;11.726;2023-09-19T09:54:10;0.30;;;0.30;;
9536;SDS011;4807;48.024;11.726;2023-09-19T09:57:20;0.47;;;0.20;;
9536;SDS011;4807;48.024;11.726;2023-09-19T10:00:33;1.60;;;0.30;;
9536;SDS011;4807;48.024;11.726;2023-09-19T10:04:02;0.80;;;0.50;;
9536;SDS011;4807;48.024;11.726;2023-09-19T10:07:22;1.03;;;0.30;;
9536;SDS011;4807;48.024;11.726;2023-09-19T10:10:34;0.73;;;0.50;;
9536;SDS011;4807;48.024;11.726;2023-09-19T10:14:00;0.60;;;0.37;;
9536;SDS011;4807;48.024;11.726;2023-09-19T10:17:14;0.50;;;0.50;;
9536;SDS011;4807;48.024;11.726;2023-09-19T10:20:30;0.77;;;0.40;;
9536;SDS011;4807;48.024;11.726;2023-09-19T10:23:46;2.00;;;0.60;;
9536;SDS011;4807;48.024;11.726;2023-09-19T10:26:56;1.10;;;0.33;;
9536;SDS011;4807;48.024;11.726;2023-09-19T10:30:07;0.73;;;0.50;;
9536;SDS011;4807;48.024;11.726;2023-09-19T10:33:19;0.80;;;0.40;;
9536;SDS011;4807;48.024;11.726;2023-09-19T10:36:29;1.33;;;0.40;;
9536;SDS011;4807;48.024;11.726;2023-09-19T10:39:42;0.53;;;0.50;;
9536;SDS011;4807;48.024;11.726;2023-09-19T10:42:54;0.33;;;0.30;;
9536;SDS011;4807;48.024;11.726;2023-09-19T10:46:09;0.50;;;0.40;;
9536;SDS011;4807;48.024;11.726;2023-09-19T10:49:20;2.93;;;0.50;;
9536;SDS011;4807;48.024;11.726;2023-09-19T10:52:29;0.43;;;0.43;;
9536;SDS011;4807;48.024;11.726;2023-09-19T10:55:40;0.33;;;0.30;;
9536;SDS011;4807;48.024;11.726;2023-09-19T10:58:50;1.13;;;0.40;;
9536;SDS011;4807;48.024;11.726;2023-09-19T11:01:58;1.90;;;0.50;;
9536;SDS011;4807;48.024;11.726;2023-09-19T11:05:25;0.50;;;0.40;;
9536;SDS011;4807;48.024;11.726;2023-09-19T11:12:04;1.43;;;0.40;;
9536;SDS011;4807;48.024;11.726;2023-09-19T11:18:56;0.33;;;0.30;;
9536;SDS011;4807;48.024;11.726;2023-09-19T11:22:08;1.50;;;0.30;;
9536;SDS011;4807;48.024;11.726;2023-09-19T11:28:58;1.00;;;0.33;;
9536;SDS011;4807;48.024;11.726;2023-09-19T11:36:34;1.13;;;0.30;;
9536;SDS011;4807;48.024;11.726;2023-09-19T11:39:50;0.63;;;0.40;;
9536;SDS011;4807;48.024;11.726;2023-09-19T11:43:28;0.60;;;0.40;;
9536;SDS011;4807;48.024;11.726;2023-09-19T11:46:53;1.13;;;0.30;;
9536;SDS011;4807;48.024;11.726;2023-09-19T11:50:03;0.70;;;0.30;;
9536;SDS011;4807;48.024;11.726;2023-09-19T11:53:17;1.07;;;0.20;;
9536;SDS011;4807;48.024;11.726;2023-09-19T11:56:28;0.40;;;0.30;;
9536;SDS011;4807;48.024;11.726;2023-09-19T11:59:38;0.40;;;0.20;;
9536;SDS011;4807;48.024;11.726;2023-09-19T12:02:47;0.50;;;0.30;;
9536;SDS011;4807;48.024;11.726;2023-09-19T12:06:02;0.50;;;0.40;;
9536;SDS011;4807;48.024;11.726;2023-09-19T12:09:21;0.40;;;0.40;;
9536;SDS011;4807;48.024;11.726;2023-09-19T12:12:33;0.30;;;0.20;;
9536;SDS011;4807;48.024;11.726;2023-09-19T12:15:42;0.90;;;0.30;;
9536;SDS011;4807;48.024;11.726;2023-09-19T12:18:52;0.40;;;0.37;;
9536;SDS011;4807;48.024;11.726;2023-09-19T12:22:03;1.70;;;0.23;;
9536;SDS011;4807;48.024;11.726;2023-09-19T12:25:12;0.47;;;0.20;;
9536;SDS011;4807;48.024;11.726;2023-09-19T12:28:25;0.30;;;0.30;;
9536;SDS011;4807;48.024;11.726;2023-09-19T12:31:49;1.00;;;0.20;;
9536;SDS011;4807;48.024;11.726;2023-09-19T12:35:01;0.20;;;0.20;;
9536;SDS011;4807;48.024;11.726;2023-09-19T12:38:22;2.50;;;0.40;;
9536;SDS011;4807;48.024;11.726;2023-09-19T12:41:33;0.53;;;0.30;;
9536;SDS011;4807;48.024;11.726;2023-09-19T12:44:43;1.20;;;0.30;;
9536;SDS011;4807;48.024;11.726;2023-09-19T12:51:34;0.60;;;0.40;;
9536;SDS011;4807;48.024;11.726;2023-09-19T12:54:43;0.30;;;0.30;;
9536;SDS011;4807;48.024;11.726;2023-09-19T12:58:00;0.80;;;0.20;;
9536;SDS011;4807;48.024;11.726;2023-09-19T13:01:18;0.30;;;0.30;;
9536;SDS011;4807;48.024;11.726;2023-09-19T13:04:28;0.63;;;0.20;;
9536;SDS011;4807;48.024;11.726;2023-09-19T13:07:41;0.20;;;0.20;;
9536;SDS011;4807;48.024;11.726;2023-09-19T13:11:05;0.17;;;0.10;;
9536;SDS011;4807;48.024;11.726;2023-09-19T13:14:19;0.23;;;0.20;;
9536;SDS011;4807;48.024;11.726;2023-09-19T13:17:43;1.40;;;0.30;;
9536;SDS011;4807;48.024;11.726;2023-09-19T13:24:20;0.67;;;0.20;;
9536;SDS011;4807;48.024;11.726;2023-09-19T13:27:32;0.23;;;0.23;;
9536;SDS011;4807;48.024;11.726;2023-09-19T13:30:41;0.20;;;0.20;;
9536;SDS011;4807;48.024;11.726;2023-09-19T13:33:52;0.40;;;0.20;;
9536;SDS011;4807;48.024;11.726;2023-09-19T13:37:01;0.20;;;0.20;;
9536;SDS011;4807;48.024;11.726;2023-09-19T13:40:11;0.50;;;0.33;;
9536;SDS011;4807;48.024;11.726;2023-09-19T13:43:21;0.90;;;0.40;;
9536;SDS011;4807;48.024;11.726;2023-09-19T13:46:31;0.30;;;0.30;;
9536;SDS011;4807;48.024;11.726;2023-09-19T13:49:43;0.40;;;0.20;;
9536;SDS011;4807;48.024;11.726;2023-09-19T13:52:55;0.40;;;0.30;;
9536;SDS011;4807;48.024;11.726;2023-09-19T13:56:04;0.23;;;0.23;;
9536;SDS011;4807;48.024;11.726;2023-09-19T13:59:13;1.57;;;0.37;;
9536;SDS011;4807;48.024;11.726;2023-09-19T14:02:22;1.63;;;0.30;;
9536;SDS011;4807;48.024;11.726;2023-09-19T14:05:33;0.70;;;0.30;;
9536;SDS011;4807;48.024;11.726;2023-09-19T14:08:41;1.07;;;0.30;;
9536;SDS011;4807;48.024;11.726;2023-09-19T14:11:53;0.30;;;0.30;;
9536;SDS011;4807;48.024;11.726;2023-09-19T14:15:02;0.43;;;0.20;;
9536;SDS011;4807;48.024;11.726;2023-09-19T14:18:11;0.40;;;0.13;;
9536;SDS011;4807;48.024;11.726;2023-09-19T14:21:21;0.20;;;0.20;;
9536;SDS011;4807;48.024;11.726;2023-09-19T14:24:30;0.80;;;0.20;;
9536;SDS011;4807;48.024;11.726;2023-09-19T14:27:39;1.43;;;0.13;;
9536;SDS011;4807;48.024;11.726;2023-09-19T14:30:48;0.27;;;0.10;;
9536;SDS011;4807;48.024;11.726;2023-09-19T14:33:57;0.50;;;0.30;;
9536;SDS011;4807;48.024;11.726;2023-09-19T14:37:07;0.20;;;0.20;;
9536;SDS011;4807;48.024;11.726;2023-09-19T14:40:17;0.20;;;0.20;;
9536;SDS011;4807;48.024;11.726;2023-09-19T14:43:26;0.10;;;0.10;;
9536;SDS011;4807;48.024;11.726;2023-09-19T14:46:36;0.30;;;0.30;;
9536;SDS011;4807;48.024;11.726;2023-09-19T14:49:46;0.33;;;0.20;;
9536;SDS011;4807;48.024;11.726;2023-09-19T14:52:57;0.20;;;0.20;;
9536;SDS011;4807;48.024;11.726;2023-09-19T14:56:08;0.30;;;0.17;;
9536;SDS011;4807;48.024;11.726;2023-09-19T14:59:18;1.10;;;0.20;;
9536;SDS011;4807;48.024;11.726;2023-09-19T15:02:27;0.10;;;0.10;;
9536;SDS011;4807;48.024;11.726;2023-09-19T15:05:36;0.30;;;0.20;;
9536;SDS011;4807;48.024;11.726;2023-09-19T15:08:47;1.40;;;0.20;;
9536;SDS011;4807;48.024;11.726;2023-09-19T15:11:57;2.73;;;0.10;;
9536;SDS011;4807;48.024;11.726;2023-09-19T15:15:07;0.50;;;0.20;;
9536;SDS011;4807;48.024;11.726;2023-09-19T15:18:16;0.47;;;0.20;;
9536;SDS011;4807;48.024;11.726;2023-09-19T15:21:25;0.87;;;0.10;;
9536;SDS011;4807;48.024;11.726;2023-09-19T15:24:36;0.20;;;0.17;;
9536;SDS011;4807;48.024;11.726;2023-09-19T15:27:45;1.33;;;0.10;;
9536;SDS011;4807;48.024;11.726;2023-09-19T15:30:57;0.20;;;0.20;;
9536;SDS011;4807;48.024;11.726;2023-09-19T15:34:07;1.13;;;0.20;;
9536;SDS011;4807;48.024;11.726;2023-09-19T15:37:17;0.43;;;0.10;;
9536;SDS011;4807;48.024;11.726;2023-09-19T15:40:28;0.87;;;0.10;;
9536;SDS011;4807;48.024;11.726;2023-09-19T15:43:37;0.10;;;0.10;;
9536;SDS011;4807;48.024;11.726;2023-09-19T15:46:47;0.23;;;0.20;;
9536;SDS011;4807;48.024;11.726;2023-09-19T15:49:56;1.10;;;0.20;;
9536;SDS011;4807;48.024;11.726;2023-09-19T15:53:05;0.37;;;0.20;;
9536;SDS011;4807;48.024;11.726;2023-09-19T15:56:16;0.20;;;0.20;;
9536;SDS011;4807;48.024;11.726;2023-09-19T15:59:27;0.33;;;0.10;;
9536;SDS011;4807;48.024;11.726;2023-09-19T16:02:37;0.13;;;0.13;;
9536;SDS011;4807;48.024;11.726;2023-09-19T16:05:46;0.10;;;0.10;;
9536;SDS011;4807;48.024;11.726;2023-09-19T16:08:56;0.20;;;0.20;;
9536;SDS011;4807;48.024;11.726;2023-09-19T16:12:07;0.50;;;0.10;;
9536;SDS011;4807;48.024;11.726;2023-09-19T16:15:17;0.10;;;0.10;;
9536;SDS011;4807;48.024;11.726;2023-09-19T16:18:26;0.93;;;0.20;;
9536;SDS011;4807;48.024;11.726;2023-09-19T16:21:36;0.30;;;0.20;;
9536;SDS011;4807;48.024;11.726;2023-09-19T16:24:47;0.20;;;0.20;;
9536;SDS011;4807;48.024;11.726;2023-09-19T16:27:57;0.30;;;0.10;;
9536;SDS011;4807;48.024;11.726;2023-09-19T16:31:06;1.00;;;0.20;;
9536;SDS011;4807;48.024;11.726;2023-09-19T16:34:15;0.30;;;0.20;;
9536;SDS011;4807;48.024;11.726;2023-09-19T16:37:24;0.20;;;0.13;;
9536;SDS011;4807;48.024;11.726;2023-09-19T16:40:32;0.23;;;0.20;;
9536;SDS011;4807;48.024;11.726;2023-09-19T16:43:43;0.57;;;0.20;;
9536;SDS011;4807;48.024;11.726;2023-09-19T16:46:53;2.20;;;0.23;;
9536;SDS011;4807;48.024;11.726;2023-09-19T16:50:02;0.57;;;0.37;;
9536;SDS011;4807;48.024;11.726;2023-09-19T16:53:13;0.20;;;0.20;;
9536;SDS011;4807;48.024;11.726;2023-09-19T16:56:24;0.87;;;0.20;;
9536;SDS011;4807;48.024;11.726;2023-09-19T16:59:36;1.17;;;0.20;;
9536;SDS011;4807;48.024;11.726;2023-09-19T17:02:46;0.60;;;0.37;;
9536;SDS011;4807;48.024;11.726;2023-09-19T17:05:59;0.60;;;0.30;;
9536;SDS011;4807;48.024;11.726;2023-09-19T17:09:08;1.37;;;0.20;;
9536;SDS011;4807;48.024;11.726;2023-09-19T17:12:17;0.20;;;0.20;;
9536;SDS011;4807;48.024;11.726;2023-09-19T17:15:27;1.30;;;1.17;;
9536;SDS011;4807;48.024;11.726;2023-09-19T17:18:38;1.27;;;0.73;;
9536;SDS011;4807;48.024;11.726;2023-09-19T17:21:50;0.80;;;0.80;;
9536;SDS011;4807;48.024;11.726;2023-09-19T17:24:59;0.70;;;0.60;;
9536;SDS011;4807;48.024;11.726;2023-09-19T17:28:09;0.60;;;0.60;;
9536;SDS011;4807;48.024;11.726;2023-09-19T17:31:20;0.50;;;0.30;;
9536;SDS011;4807;48.024;11.726;2023-09-19T17:34:31;0.60;;;0.50;;
9536;SDS011;4807;48.024;11.726;2023-09-19T17:37:40;0.53;;;0.50;;
9536;SDS011;4807;48.024;11.726;2023-09-19T17:40:49;0.80;;;0.47;;
9536;SDS011;4807;48.024;11.726;2023-09-19T17:43:58;0.47;;;0.40;;
9536;SDS011;4807;48.024;11.726;2023-09-19T17:47:09;0.30;;;0.30;;
9536;SDS011;4807;48.024;11.726;2023-09-19T17:50:18;1.10;;;0.57;;
9536;SDS011;4807;48.024;11.726;2023-09-19T17:53:27;0.80;;;0.60;;
9536;SDS011;4807;48.024;11.726;2023-09-19T17:56:36;0.73;;;0.60;;
9536;SDS011;4807;48.024;11.726;2023-09-19T17:59:46;1.60;;;0.40;;
9536;SDS011;4807;48.024;11.726;2023-09-19T18:02:56;2.87;;;0.50;;
9536;SDS011;4807;48.024;11.726;2023-09-19T18:06:10;0.57;;;0.53;;
9536;SDS011;4807;48.024;11.726;2023-09-19T18:09:19;0.40;;;0.40;;
9536;SDS011;4807;48.024;11.726;2023-09-19T18:12:28;1.43;;;0.40;;
9536;SDS011;4807;48.024;11.726;2023-09-19T18:15:38;0.40;;;0.40;;
9536;SDS011;4807;48.024;11.726;2023-09-19T18:18:48;2.33;;;1.77;;
9536;SDS011;4807;48.024;11.726;2023-09-19T18:22:00;3.63;;;1.30;;
9536;SDS011;4807;48.024;11.726;2023-09-19T18:25:11;1.90;;;1.30;;
9536;SDS011;4807;48.024;11.726;2023-09-19T18:28:20;2.90;;;1.87;;
9536;SDS011;4807;48.024;11.726;2023-09-19T18:31:29;4.60;;;2.30;;
9536;SDS011;4807;48.024;11.726;2023-09-19T18:34:41;4.20;;;2.93;;
9536;SDS011;4807;48.024;11.726;2023-09-19T18:37:50;3.80;;;2.20;;
9536;SDS011;4807;48.024;11.726;2023-09-19T18:41:02;3.10;;;2.00;;
9536;SDS011;4807;48.024;11.726;2023-09-19T18:44:14;1.63;;;1.23;;
9536;SDS011;4807;48.024;11.726;2023-09-19T18:47:23;1.77;;;0.80;;
9536;SDS011;4807;48.024;11.726;2023-09-19T18:50:36;1.30;;;0.70;;
9536;SDS011;4807;48.024;11.726;2023-09-19T18:53:49;0.40;;;0.40;;
9536;SDS011;4807;48.024;11.726;2023-09-19T18:57:17;1.70;;;0.70;;
9536;SDS011;4807;48.024;11.726;2023-09-19T19:00:26;1.77;;;0.50;;
9536;SDS011;4807;48.024;11.726;2023-09-19T19:03:35;0.87;;;0.50;;
9536;SDS011;4807;48.024;11.726;2023-09-19T19:06:46;1.03;;;0.40;;
9536;SDS011;4807;48.024;11.726;2023-09-19T19:09:55;2.87;;;0.40;;
9536;SDS011;4807;48.024;11.726;2023-09-19T19:13:05;1.97;;;0.40;;
9536;SDS011;4807;48.024;11.726;2023-09-19T19:16:14;0.40;;;0.30;;
9536;SDS011;4807;48.024;11.726;2023-09-19T19:19:25;1.57;;;0.50;;
9536;SDS011;4807;48.024;11.726;2023-09-19T19:22:37;1.77;;;0.30;;
9536;SDS011;4807;48.024;11.726;2023-09-19T19:25:48;0.40;;;0.37;;
9536;SDS011;4807;48.024;11.726;2023-09-19T19:28:58;2.00;;;0.50;;
9536;SDS011;4807;48.024;11.726;2023-09-19T19:32:07;0.87;;;0.57;;
9536;SDS011;4807;48.024;11.726;2023-09-19T19:35:19;0.40;;;0.40;;
9536;SDS011;4807;48.024;11.726;2023-09-19T19:38:30;3.60;;;0.50;;
9536;SDS011;4807;48.024;11.726;2023-09-19T19:41:39;0.40;;;0.40;;
9536;SDS011;4807;48.024;11.726;2023-09-19T19:44:50;1.03;;;0.40;;
9536;SDS011;4807;48.024;11.726;2023-09-19T19:48:00;1.90;;;0.40;;
9536;SDS011;4807;48.024;11.726;2023-09-19T19:51:10;2.27;;;0.40;;